sensor_id;sensor_type;location;lat;lon;timestamp;pressure;altitude;pressure_sealevel;temperature;humidity
51227;BME280;42714;48.260;10.980;2023-04-28T00:04:59;969.8;;;9.1;100.0
51227;BME280;42714;48.260;10.980;2023-04-28T00:10:00;969.8;;;9.2;100.0
51227;BME280;42714;48.260;10.980;2023-04-28T00:15:01;969.7;;;9.3;100.0
51227;BME280;42714;48.260;10.980;2023-04-28T00:20:02;969.8;;;9.3;100.0
51227;BME280;42714;48.260;10.980;2023-04-28T00:25:04;969.7;;;9.4;100.0
51227;BME280;42714;48.260;10.980;2023-04-28T00:35:05;969.7;;;9.5;100.0
51227;BME280;42714;48.260;10.980;2023-04-28T00:45:08;969.6;;;9.6;100.0
51227;BME280;42714;48.260;10.980;2023-04-28T00:50:08;969.6;;;9.7;100.0
51227;BME280;42714;48.260;10.980;2023-04-28T00:55:09;969.5;;;9.7;100.0
51227;BME280;42714;48.260;10.980;2023-04-28T01:00:10;969.5;;;9.7;100.0
51227;BME280;42714;48.260;10.980;2023-04-28T01:05:10;969.4;;;9.6;100.0
51227;BME280;42714;48.260;10.980;2023-04-28T01:10:11;969.3;;;9.6;100.0
51227;BME280;42714;48.260;10.980;2023-04-28T01:15:14;969.1;;;9.7;100.0
51227;BME280;42714;48.260;10.980;2023-04-28T01:20:13;969.0;;;9.7;100.0
51227;BME280;42714;48.260;10.980;2023-04-28T01:25:14;969.0;;;9.7;100.0
51227;BME280;42714;48.260;10.980;2023-04-28T01:30:15;969.0;;;9.8;100.0
51227;BME280;42714;48.260;10.980;2023-04-28T01:35:16;969.0;;;9.9;100.0
51227;BME280;42714;48.260;10.980;2023-04-28T01:40:17;969.0;;;9.9;100.0
51227;BME280;42714;48.260;10.980;2023-04-28T01:45:18;969.1;;;10.0;100.0
51227;BME280;42714;48.260;10.980;2023-04-28T01:50:19;969.1;;;10.0;100.0
51227;BME280;42714;48.260;10.980;2023-04-28T01:55:20;969.1;;;10.0;100.0
51227;BME280;42714;48.260;10.980;2023-04-28T02:00:21;969.2;;;10.1;100.0
51227;BME280;42714;48.260;10.980;2023-04-28T02:05:22;969.2;;;10.1;100.0
51227;BME280;42714;48.260;10.980;2023-04-28T02:10:23;969.1;;;10.3;100.0
51227;BME280;42714;48.260;10.980;2023-04-28T02:15:24;969.0;;;10.4;100.0
51227;BME280;42714;48.260;10.980;2023-04-28T02:20:25;968.8;;;10.3;100.0
51227;BME280;42714;48.260;10.980;2023-04-28T02:25:26;968.6;;;10.4;100.0
51227;BME280;42714;48.260;10.980;2023-04-28T02:30:27;968.6;;;10.2;100.0
51227;BME280;42714;48.260;10.980;2023-04-28T02:35:28;968.8;;;10.3;100.0
51227;BME280;42714;48.260;10.980;2023-04-28T02:40:29;968.9;;;10.4;100.0
51227;BME280;42714;48.260;10.980;2023-04-28T02:45:30;968.8;;;10.4;100.0
51227;BME280;42714;48.260;10.980;2023-04-28T02:50:31;968.7;;;10.3;100.0
51227;BME280;42714;48.260;10.980;2023-04-28T02:55:32;968.8;;;10.2;100.0
51227;BME280;42714;48.260;10.980;2023-04-28T03:00:33;968.7;;;10.2;100.0
51227;BME280;42714;48.260;10.980;2023-04-28T03:05:34;968.7;;;10.2;100.0
51227;BME280;42714;48.260;10.980;2023-04-28T03:10:35;968.6;;;10.2;100.0
51227;BME280;42714;48.260;10.980;2023-04-28T03:15:36;968.6;;;10.1;100.0
51227;BME280;42714;48.260;10.980;2023-04-28T03:20:37;968.7;;;10.0;100.0
51227;BME280;42714;48.260;10.980;2023-04-28T03:25:38;968.8;;;10.1;100.0
51227;BME280;42714;48.260;10.980;2023-04-28T03:30:39;968.9;;;10.1;100.0
51227;BME280;42714;48.260;10.980;2023-04-28T03:35:40;968.9;;;10.2;100.0
51227;BME280;42714;48.260;10.980;2023-04-28T03:40:41;968.7;;;10.2;100.0
51227;BME280;42714;48.260;10.980;2023-04-28T03:45:42;968.7;;;10.2;100.0
51227;BME280;42714;48.260;10.980;2023-04-28T03:50:43;968.7;;;10.0;100.0
51227;BME280;42714;48.260;10.980;2023-04-28T03:55:44;968.6;;;9.9;100.0
51227;BME280;42714;48.260;10.980;2023-04-28T04:00:45;968.5;;;9.9;100.0
51227;BME280;42714;48.260;10.980;2023-04-28T04:05:46;968.4;;;9.8;100.0
51227;BME280;42714;48.260;10.980;2023-04-28T04:10:48;968.4;;;9.7;100.0
51227;BME280;42714;48.260;10.980;2023-04-28T04:15:48;968.4;;;9.7;100.0
51227;BME280;42714;48.260;10.980;2023-04-28T04:20:49;968.5;;;9.7;100.0
51227;BME280;42714;48.260;10.980;2023-04-28T04:25:50;968.6;;;9.8;100.0
51227;BME280;42714;48.260;10.980;2023-04-28T04:30:51;968.6;;;9.7;100.0
51227;BME280;42714;48.260;10.980;2023-04-28T04:35:52;968.7;;;9.6;100.0
51227;BME280;42714;48.260;10.980;2023-04-28T04:40:53;968.8;;;9.6;100.0
51227;BME280;42714;48.260;10.980;2023-04-28T04:45:54;968.7;;;10.0;100.0
51227;BME280;42714;48.260;10.980;2023-04-28T04:50:55;968.7;;;10.1;100.0
51227;BME280;42714;48.260;10.980;2023-04-28T04:55:56;968.7;;;10.4;100.0
51227;BME280;42714;48.260;10.980;2023-04-28T05:00:57;968.7;;;10.3;100.0
51227;BME280;42714;48.260;10.980;2023-04-28T05:05:58;968.7;;;10.3;100.0
51227;BME280;42714;48.260;10.980;2023-04-28T05:10:59;968.7;;;10.4;100.0
51227;BME280;42714;48.260;10.980;2023-04-28T05:16:00;968.7;;;10.3;100.0
51227;BME280;42714;48.260;10.980;2023-04-28T05:21:01;968.9;;;10.0;100.0
51227;BME280;42714;48.260;10.980;2023-04-28T05:26:02;968.9;;;10.0;100.0
51227;BME280;42714;48.260;10.980;2023-04-28T05:31:03;968.9;;;10.2;100.0
51227;BME280;42714;48.260;10.980;2023-04-28T05:36:04;968.8;;;10.1;100.0
51227;BME280;42714;48.260;10.980;2023-04-28T05:41:05;968.8;;;10.1;100.0
51227;BME280;42714;48.260;10.980;2023-04-28T05:46:06;968.9;;;10.1;100.0
51227;BME280;42714;48.260;10.980;2023-04-28T05:51:07;968.8;;;10.2;100.0
51227;BME280;42714;48.260;10.980;2023-04-28T05:56:08;968.7;;;10.3;100.0
51227;BME280;42714;48.260;10.980;2023-04-28T06:01:09;968.7;;;10.3;100.0
51227;BME280;42714;48.260;10.980;2023-04-28T06:06:10;968.6;;;10.3;100.0
51227;BME280;42714;48.260;10.980;2023-04-28T06:11:11;968.5;;;10.5;100.0
51227;BME280;42714;48.260;10.980;2023-04-28T06:16:12;968.5;;;10.7;100.0
51227;BME280;42714;48.260;10.980;2023-04-28T06:21:14;968.5;;;11.0;100.0
51227;BME280;42714;48.260;10.980;2023-04-28T06:26:14;968.5;;;11.2;100.0
51227;BME280;42714;48.260;10.980;2023-04-28T06:31:15;968.5;;;11.4;100.0
51227;BME280;42714;48.260;10.980;2023-04-28T06:36:16;968.4;;;11.5;100.0
51227;BME280;42714;48.260;10.980;2023-04-28T06:41:17;968.3;;;11.8;100.0
51227;BME280;42714;48.260;10.980;2023-04-28T06:46:18;968.3;;;11.9;100.0
51227;BME280;42714;48.260;10.980;2023-04-28T06:51:19;968.2;;;11.9;100.0
51227;BME280;42714;48.260;10.980;2023-04-28T06:56:20;968.2;;;11.8;100.0
51227;BME280;42714;48.260;10.980;2023-04-28T07:01:21;968.3;;;12.0;100.0
51227;BME280;42714;48.260;10.980;2023-04-28T07:06:22;968.2;;;11.9;100.0
51227;BME280;42714;48.260;10.980;2023-04-28T07:11:23;968.3;;;11.9;100.0
51227;BME280;42714;48.260;10.980;2023-04-28T07:16:24;968.4;;;11.9;100.0
51227;BME280;42714;48.260;10.980;2023-04-28T07:21:25;968.5;;;11.8;100.0
51227;BME280;42714;48.260;10.980;2023-04-28T07:26:26;968.6;;;11.8;100.0
51227;BME280;42714;48.260;10.980;2023-04-28T07:31:27;968.5;;;11.8;100.0
51227;BME280;42714;48.260;10.980;2023-04-28T07:36:28;968.5;;;11.9;100.0
51227;BME280;42714;48.260;10.980;2023-04-28T07:41:29;968.5;;;11.9;100.0
51227;BME280;42714;48.260;10.980;2023-04-28T07:46:31;968.4;;;11.4;100.0
51227;BME280;42714;48.260;10.980;2023-04-28T07:51:31;968.2;;;11.2;100.0
51227;BME280;42714;48.260;10.980;2023-04-28T07:56:32;968.1;;;11.4;100.0
51227;BME280;42714;48.260;10.980;2023-04-28T08:01:33;968.1;;;11.3;100.0
51227;BME280;42714;48.260;10.980;2023-04-28T08:06:34;968.1;;;11.4;100.0
51227;BME280;42714;48.260;10.980;2023-04-28T08:11:35;968.1;;;11.4;100.0
51227;BME280;42714;48.260;10.980;2023-04-28T08:16:36;968.1;;;11.3;100.0
51227;BME280;42714;48.260;10.980;2023-04-28T08:21:37;968.0;;;11.3;100.0
51227;BME280;42714;48.260;10.980;2023-04-28T08:26:38;968.0;;;11.4;100.0
51227;BME280;42714;48.260;10.980;2023-04-28T08:31:39;968.0;;;11.5;100.0
51227;BME280;42714;48.260;10.980;2023-04-28T08:36:40;967.9;;;11.6;100.0
51227;BME280;42714;48.260;10.980;2023-04-28T08:41:41;967.9;;;11.7;100.0
51227;BME280;42714;48.260;10.980;2023-04-28T08:46:43;967.9;;;11.7;100.0
51227;BME280;42714;48.260;10.980;2023-04-28T08:51:44;967.9;;;11.7;100.0
51227;BME280;42714;48.260;10.980;2023-04-28T08:56:45;967.8;;;11.6;100.0
51227;BME280;42714;48.260;10.980;2023-04-28T09:01:47;967.8;;;11.6;100.0
51227;BME280;42714;48.260;10.980;2023-04-28T09:06:46;967.8;;;11.7;100.0
51227;BME280;42714;48.260;10.980;2023-04-28T09:11:51;967.8;;;11.7;100.0
51227;BME280;42714;48.260;10.980;2023-04-28T09:16:49;967.8;;;11.7;100.0
51227;BME280;42714;48.260;10.980;2023-04-28T09:21:51;967.8;;;11.7;100.0
51227;BME280;42714;48.260;10.980;2023-04-28T09:26:50;967.8;;;11.8;100.0
51227;BME280;42714;48.260;10.980;2023-04-28T09:31:51;967.8;;;11.7;100.0
51227;BME280;42714;48.260;10.980;2023-04-28T09:36:52;967.8;;;11.8;100.0
51227;BME280;42714;48.260;10.980;2023-04-28T09:41:53;967.9;;;11.8;100.0
51227;BME280;42714;48.260;10.980;2023-04-28T09:46:54;967.9;;;11.8;100.0
51227;BME280;42714;48.260;10.980;2023-04-28T09:52:10;967.9;;;11.8;100.0
51227;BME280;42714;48.260;10.980;2023-04-28T09:56:56;967.9;;;11.9;100.0
51227;BME280;42714;48.260;10.980;2023-04-28T10:01:57;967.9;;;11.9;100.0
51227;BME280;42714;48.260;10.980;2023-04-28T10:06:59;967.9;;;12.1;100.0
51227;BME280;42714;48.260;10.980;2023-04-28T10:11:59;968.0;;;12.1;100.0
51227;BME280;42714;48.260;10.980;2023-04-28T10:17:00;968.0;;;12.2;100.0
51227;BME280;42714;48.260;10.980;2023-04-28T10:27:04;968.1;;;12.4;100.0
51227;BME280;42714;48.260;10.980;2023-04-28T10:37:04;968.1;;;12.5;100.0
51227;BME280;42714;48.260;10.980;2023-04-28T10:42:30;968.0;;;12.8;100.0
51227;BME280;42714;48.260;10.980;2023-04-28T10:47:07;968.0;;;12.8;100.0
51227;BME280;42714;48.260;10.980;2023-04-28T10:52:54;968.1;;;12.9;100.0
51227;BME280;42714;48.260;10.980;2023-04-28T11:02:55;968.1;;;12.9;100.0
51227;BME280;42714;48.260;10.980;2023-04-28T11:07:11;968.1;;;13.0;100.0
51227;BME280;42714;48.260;10.980;2023-04-28T11:12:12;968.0;;;13.2;100.0
51227;BME280;42714;48.260;10.980;2023-04-28T11:17:13;968.0;;;13.3;100.0
51227;BME280;42714;48.260;10.980;2023-04-28T11:22:15;968.0;;;13.6;100.0
51227;BME280;42714;48.260;10.980;2023-04-28T11:27:21;968.0;;;13.8;100.0
51227;BME280;42714;48.260;10.980;2023-04-28T11:32:16;968.0;;;13.9;100.0
51227;BME280;42714;48.260;10.980;2023-04-28T11:37:17;967.7;;;13.9;100.0
51227;BME280;42714;48.260;10.980;2023-04-28T11:42:18;967.9;;;13.8;100.0
51227;BME280;42714;48.260;10.980;2023-04-28T11:52:20;967.8;;;14.1;100.0
51227;BME280;42714;48.260;10.980;2023-04-28T11:57:21;967.8;;;14.2;100.0
51227;BME280;42714;48.260;10.980;2023-04-28T12:02:23;967.8;;;14.2;100.0
51227;BME280;42714;48.260;10.980;2023-04-28T12:07:23;967.7;;;14.4;100.0
51227;BME280;42714;48.260;10.980;2023-04-28T12:17:25;967.7;;;15.8;100.0
51227;BME280;42714;48.260;10.980;2023-04-28T12:22:26;967.7;;;15.7;100.0
51227;BME280;42714;48.260;10.980;2023-04-28T12:27:27;967.7;;;17.7;100.0
51227;BME280;42714;48.260;10.980;2023-04-28T12:37:29;967.7;;;17.1;100.0
51227;BME280;42714;48.260;10.980;2023-04-28T12:42:30;967.7;;;16.3;100.0
51227;BME280;42714;48.260;10.980;2023-04-28T12:47:31;967.8;;;16.0;100.0
51227;BME280;42714;48.260;10.980;2023-04-28T12:52:32;967.8;;;15.8;100.0
51227;BME280;42714;48.260;10.980;2023-04-28T12:57:33;967.8;;;15.6;100.0
51227;BME280;42714;48.260;10.980;2023-04-28T13:02:34;967.8;;;15.8;100.0
51227;BME280;42714;48.260;10.980;2023-04-28T13:07:35;967.8;;;16.0;100.0
51227;BME280;42714;48.260;10.980;2023-04-28T13:12:36;967.8;;;16.2;100.0
51227;BME280;42714;48.260;10.980;2023-04-28T13:17:37;967.7;;;16.4;100.0
51227;BME280;42714;48.260;10.980;2023-04-28T13:22:38;967.7;;;16.9;100.0
51227;BME280;42714;48.260;10.980;2023-04-28T13:27:39;967.6;;;17.3;100.0
51227;BME280;42714;48.260;10.980;2023-04-28T13:32:40;967.6;;;16.9;100.0
51227;BME280;42714;48.260;10.980;2023-04-28T13:37:41;967.6;;;16.5;100.0
51227;BME280;42714;48.260;10.980;2023-04-28T13:42:42;967.6;;;16.4;100.0
51227;BME280;42714;48.260;10.980;2023-04-28T13:47:43;967.6;;;16.4;100.0
51227;BME280;42714;48.260;10.980;2023-04-28T13:52:44;967.5;;;16.5;100.0
51227;BME280;42714;48.260;10.980;2023-04-28T13:57:45;967.5;;;16.4;100.0
51227;BME280;42714;48.260;10.980;2023-04-28T14:02:46;967.5;;;16.0;100.0
51227;BME280;42714;48.260;10.980;2023-04-28T14:07:47;967.6;;;15.8;100.0
51227;BME280;42714;48.260;10.980;2023-04-28T14:12:48;967.5;;;15.0;100.0
51227;BME280;42714;48.260;10.980;2023-04-28T14:17:49;967.5;;;14.6;100.0
51227;BME280;42714;48.260;10.980;2023-04-28T14:22:50;967.4;;;14.5;100.0
51227;BME280;42714;48.260;10.980;2023-04-28T14:27:51;967.4;;;14.6;100.0
51227;BME280;42714;48.260;10.980;2023-04-28T14:32:52;967.4;;;14.5;100.0
51227;BME280;42714;48.260;10.980;2023-04-28T14:37:53;967.4;;;14.5;100.0
51227;BME280;42714;48.260;10.980;2023-04-28T14:42:54;967.4;;;14.7;100.0
51227;BME280;42714;48.260;10.980;2023-04-28T14:47:55;967.4;;;14.7;100.0
51227;BME280;42714;48.260;10.980;2023-04-28T14:52:56;967.4;;;14.8;100.0
51227;BME280;42714;48.260;10.980;2023-04-28T14:57:57;967.4;;;14.9;100.0
51227;BME280;42714;48.260;10.980;2023-04-28T15:02:58;967.5;;;14.9;100.0
51227;BME280;42714;48.260;10.980;2023-04-28T15:07:59;967.3;;;15.0;100.0
51227;BME280;42714;48.260;10.980;2023-04-28T15:13:00;967.2;;;15.2;100.0
51227;BME280;42714;48.260;10.980;2023-04-28T15:18:01;967.2;;;15.3;100.0
51227;BME280;42714;48.260;10.980;2023-04-28T15:23:02;967.2;;;15.3;100.0
51227;BME280;42714;48.260;10.980;2023-04-28T15:28:03;967.0;;;15.7;100.0
51227;BME280;42714;48.260;10.980;2023-04-28T15:33:04;967.0;;;15.7;100.0
51227;BME280;42714;48.260;10.980;2023-04-28T15:38:05;967.1;;;16.0;100.0
51227;BME280;42714;48.260;10.980;2023-04-28T15:43:06;967.0;;;15.9;100.0
51227;BME280;42714;48.260;10.980;2023-04-28T15:48:07;967.0;;;15.8;100.0
51227;BME280;42714;48.260;10.980;2023-04-28T15:53:08;967.1;;;15.8;100.0
51227;BME280;42714;48.260;10.980;2023-04-28T15:58:09;967.0;;;15.7;100.0
51227;BME280;42714;48.260;10.980;2023-04-28T16:03:10;967.2;;;15.7;100.0
51227;BME280;42714;48.260;10.980;2023-04-28T16:08:11;967.3;;;15.3;100.0
51227;BME280;42714;48.260;10.980;2023-04-28T16:13:12;967.2;;;15.1;100.0
51227;BME280;42714;48.260;10.980;2023-04-28T16:18:13;967.2;;;14.9;100.0
51227;BME280;42714;48.260;10.980;2023-04-28T16:23:14;967.2;;;14.7;100.0
51227;BME280;42714;48.260;10.980;2023-04-28T16:28:15;967.2;;;14.5;100.0
51227;BME280;42714;48.260;10.980;2023-04-28T16:33:16;967.3;;;14.1;100.0
51227;BME280;42714;48.260;10.980;2023-04-28T16:38:17;967.1;;;13.3;100.0
51227;BME280;42714;48.260;10.980;2023-04-28T16:43:18;967.1;;;13.1;100.0
51227;BME280;42714;48.260;10.980;2023-04-28T16:48:19;967.2;;;12.8;100.0
51227;BME280;42714;48.260;10.980;2023-04-28T16:53:20;967.0;;;12.7;100.0
51227;BME280;42714;48.260;10.980;2023-04-28T16:58:21;967.0;;;12.9;100.0
51227;BME280;42714;48.260;10.980;2023-04-28T17:03:22;967.2;;;12.9;100.0
51227;BME280;42714;48.260;10.980;2023-04-28T17:08:23;967.2;;;12.9;100.0
51227;BME280;42714;48.260;10.980;2023-04-28T17:13:24;967.3;;;13.1;100.0
51227;BME280;42714;48.260;10.980;2023-04-28T17:18:25;967.2;;;13.1;100.0
51227;BME280;42714;48.260;10.980;2023-04-28T17:23:26;967.1;;;13.3;100.0
51227;BME280;42714;48.260;10.980;2023-04-28T17:28:27;967.2;;;13.5;100.0
51227;BME280;42714;48.260;10.980;2023-04-28T17:33:28;967.1;;;13.5;100.0
51227;BME280;42714;48.260;10.980;2023-04-28T17:38:29;967.2;;;13.4;100.0
51227;BME280;42714;48.260;10.980;2023-04-28T17:43:30;967.3;;;13.4;100.0
51227;BME280;42714;48.260;10.980;2023-04-28T17:48:31;967.4;;;13.3;100.0
51227;BME280;42714;48.260;10.980;2023-04-28T17:53:32;967.2;;;13.2;100.0
51227;BME280;42714;48.260;10.980;2023-04-28T17:58:33;967.2;;;13.1;100.0
51227;BME280;42714;48.260;10.980;2023-04-28T18:03:34;967.7;;;13.0;100.0
51227;BME280;42714;48.260;10.980;2023-04-28T18:08:35;967.7;;;13.0;100.0
51227;BME280;42714;48.260;10.980;2023-04-28T18:13:36;967.5;;;12.9;100.0
51227;BME280;42714;48.260;10.980;2023-04-28T18:18:37;967.5;;;12.8;100.0
51227;BME280;42714;48.260;10.980;2023-04-28T18:23:38;967.7;;;12.8;100.0
51227;BME280;42714;48.260;10.980;2023-04-28T18:28:39;967.8;;;12.9;100.0
51227;BME280;42714;48.260;10.980;2023-04-28T18:33:40;968.1;;;12.8;100.0
51227;BME280;42714;48.260;10.980;2023-04-28T18:38:41;968.2;;;12.7;100.0
51227;BME280;42714;48.260;10.980;2023-04-28T18:43:42;968.3;;;12.6;100.0
51227;BME280;42714;48.260;10.980;2023-04-28T18:48:43;968.2;;;12.4;100.0
51227;BME280;42714;48.260;10.980;2023-04-28T18:53:44;968.5;;;12.4;100.0
51227;BME280;42714;48.260;10.980;2023-04-28T18:58:45;968.5;;;12.3;100.0
51227;BME280;42714;48.260;10.980;2023-04-28T19:03:47;968.4;;;12.3;100.0
51227;BME280;42714;48.260;10.980;2023-04-28T19:08:47;968.7;;;12.3;100.0
51227;BME280;42714;48.260;10.980;2023-04-28T19:13:48;968.8;;;12.3;100.0
51227;BME280;42714;48.260;10.980;2023-04-28T19:18:49;968.8;;;12.3;100.0
51227;BME280;42714;48.260;10.980;2023-04-28T19:23:50;968.7;;;12.5;100.0
51227;BME280;42714;48.260;10.980;2023-04-28T19:28:51;968.7;;;12.3;100.0
51227;BME280;42714;48.260;10.980;2023-04-28T19:33:52;968.7;;;12.3;100.0
51227;BME280;42714;48.260;10.980;2023-04-28T19:38:53;968.7;;;12.4;100.0
51227;BME280;42714;48.260;10.980;2023-04-28T19:43:54;968.7;;;12.1;100.0
51227;BME280;42714;48.260;10.980;2023-04-28T19:48:55;968.6;;;12.2;100.0
51227;BME280;42714;48.260;10.980;2023-04-28T19:53:56;968.7;;;11.8;100.0
51227;BME280;42714;48.260;10.980;2023-04-28T19:58:57;968.7;;;11.7;100.0
51227;BME280;42714;48.260;10.980;2023-04-28T20:03:58;968.7;;;11.6;100.0
51227;BME280;42714;48.260;10.980;2023-04-28T20:09:00;968.6;;;11.5;100.0
51227;BME280;42714;48.260;10.980;2023-04-28T20:14:00;968.7;;;11.4;100.0
51227;BME280;42714;48.260;10.980;2023-04-28T20:19:01;968.7;;;11.4;100.0
51227;BME280;42714;48.260;10.980;2023-04-28T20:24:02;968.6;;;11.6;100.0
51227;BME280;42714;48.260;10.980;2023-04-28T20:29:03;968.6;;;11.4;100.0
51227;BME280;42714;48.260;10.980;2023-04-28T20:34:05;968.7;;;11.3;100.0
51227;BME280;42714;48.260;10.980;2023-04-28T20:39:05;968.7;;;11.3;100.0
51227;BME280;42714;48.260;10.980;2023-04-28T20:44:06;968.6;;;11.3;100.0
51227;BME280;42714;48.260;10.980;2023-04-28T20:49:07;968.6;;;11.3;100.0
51227;BME280;42714;48.260;10.980;2023-04-28T20:54:08;968.6;;;11.2;100.0
51227;BME280;42714;48.260;10.980;2023-04-28T20:59:09;968.6;;;11.1;100.0
51227;BME280;42714;48.260;10.980;2023-04-28T21:04:10;968.7;;;11.0;100.0
51227;BME280;42714;48.260;10.980;2023-04-28T21:09:11;968.7;;;11.0;100.0
51227;BME280;42714;48.260;10.980;2023-04-28T21:14:12;968.8;;;11.0;100.0
51227;BME280;42714;48.260;10.980;2023-04-28T21:19:13;968.6;;;10.9;100.0
51227;BME280;42714;48.260;10.980;2023-04-28T21:24:14;968.7;;;10.9;100.0
51227;BME280;42714;48.260;10.980;2023-04-28T21:29:15;968.5;;;10.8;100.0
51227;BME280;42714;48.260;10.980;2023-04-28T21:34:16;968.6;;;10.8;100.0
51227;BME280;42714;48.260;10.980;2023-04-28T21:39:17;968.5;;;10.8;100.0
51227;BME280;42714;48.260;10.980;2023-04-28T21:44:18;968.6;;;10.9;100.0
51227;BME280;42714;48.260;10.980;2023-04-28T21:49:19;968.6;;;10.9;100.0
51227;BME280;42714;48.260;10.980;2023-04-28T21:54:20;968.5;;;10.9;100.0
51227;BME280;42714;48.260;10.980;2023-04-28T21:59:21;968.6;;;10.9;100.0
51227;BME280;42714;48.260;10.980;2023-04-28T22:04:22;968.5;;;10.8;100.0
51227;BME280;42714;48.260;10.980;2023-04-28T22:09:24;968.5;;;10.8;100.0
51227;BME280;42714;48.260;10.980;2023-04-28T22:14:24;968.4;;;10.7;100.0
51227;BME280;42714;48.260;10.980;2023-04-28T22:19:25;968.4;;;10.7;100.0
51227;BME280;42714;48.260;10.980;2023-04-28T22:24:26;968.3;;;10.6;100.0
51227;BME280;42714;48.260;10.980;2023-04-28T22:29:27;968.3;;;10.6;100.0
51227;BME280;42714;48.260;10.980;2023-04-28T22:34:28;968.2;;;10.5;100.0
51227;BME280;42714;48.260;10.980;2023-04-28T22:39:29;968.2;;;10.5;100.0
51227;BME280;42714;48.260;10.980;2023-04-28T22:44:30;968.1;;;10.5;100.0
51227;BME280;42714;48.260;10.980;2023-04-28T22:49:31;968.1;;;10.4;100.0
51227;BME280;42714;48.260;10.980;2023-04-28T22:54:32;968.1;;;10.4;100.0
51227;BME280;42714;48.260;10.980;2023-04-28T22:59:33;968.1;;;10.4;100.0
51227;BME280;42714;48.260;10.980;2023-04-28T23:04:34;968.2;;;10.4;100.0
51227;BME280;42714;48.260;10.980;2023-04-28T23:09:35;968.1;;;10.4;100.0
51227;BME280;42714;48.260;10.980;2023-04-28T23:14:36;968.0;;;10.5;100.0
51227;BME280;42714;48.260;10.980;2023-04-28T23:19:37;967.9;;;10.4;100.0
51227;BME280;42714;48.260;10.980;2023-04-28T23:24:38;967.9;;;10.3;100.0
51227;BME280;42714;48.260;10.980;2023-04-28T23:29:39;967.9;;;10.4;100.0
51227;BME280;42714;48.260;10.980;2023-04-28T23:34:40;967.8;;;10.4;100.0
51227;BME280;42714;48.260;10.980;2023-04-28T23:39:41;967.8;;;10.4;100.0
51227;BME280;42714;48.260;10.980;2023-04-28T23:44:42;967.7;;;10.4;100.0
51227;BME280;42714;48.260;10.980;2023-04-28T23:49:43;967.7;;;10.4;100.0
51227;BME280;42714;48.260;10.980;2023-04-28T23:54:44;967.8;;;10.4;100.0
51227;BME280;42714;48.260;10.980;2023-04-28T23:59:45;967.7;;;10.4;100.0
